Sunday, July 22, 2018, 3:58 PM GMT
Back to Local

CWWE, Western Head, N. S.

Location: , , Canada Lat: 43.983
Local Time: 3:58 PM GMT (15:58 GMT) Lon: -64.667
Time Zone: GMT Elev: 29 ft

Show me the last for .
Show Coded

Time T Td Feel RH Dir Speed Gust Alt SLP Vis Weather Sky Remarks
2018-07-22 15:00 65 65 - 100 210° 8 - - 30.29 0 None
2018-07-22 14:00 64 64 - 100 20° 2 - - 30.29 0 None
2018-07-22 13:00 61 61 - 100 20° 6 - - 30.28 0 None
2018-07-22 12:00 60 60 - 100 20° 6 - - 30.26 0 None
2018-07-22 11:00 59 59 - 100 20° 6 - - 30.25 0 None
2018-07-22 10:00 59 59 - 100 40° 6 - - 30.24 0 None
2018-07-22 09:00 58 58 - 100 40° 5 - - 30.23 0 1-hr Precip Total: 0.04"
2018-07-22 08:00 58 58 - 100 50° 5 - - 30.22 0 1-hr Precip Total: 0.05"
2018-07-22 07:00 57 57 - 100 30° 2 - - 30.23 0 None
2018-07-22 06:00 57 57 - 100 20° 2 - - 30.23 0 None
2018-07-22 05:00 56 56 - 100 210° 2 - - 30.23 0 None
2018-07-22 04:00 57 57 - 100 220° 5 - - 30.23 0 None
2018-07-22 03:00 57 57 - 100 220° 7 - - 30.22 0 Peak wind: 19 mph (17 kts) from 200° at 03 min
2018-07-22 02:00 57 57 - 100 210° 13 - - 30.22 0 Peak wind: 19 mph (17 kts) from 190° at 40 min
2018-07-22 01:00 58 58 - 100 210° 15 - - 30.21 0 Peak wind: 21 mph (19 kts) from 210° at 43 min
2018-07-22 00:00 59 58 - 99 200° 13 - - 30.19 0 None
2018-07-21 23:00 60 60 - 100 230° 12 - - 30.18 0 Peak wind: 24 mph (21 kts) from 200° at 10 min
2018-07-21 22:00 61 60 - 96 200° 18 - - 30.16 0 Peak wind: 23 mph (20 kts) from 200° at 52 min
2018-07-21 21:00 69 68 - 97 240° 5 - - 30.13 0 None
2018-07-21 20:00 64 64 - 99 220° 5 - - 30.13 0 1-hr Precip Total: 0.02"
2018-07-21 19:00 65 64 - 97 140° 6 - - 30.12 0 1-hr Precip Total: 0.05"
2018-07-21 18:00 65 64 - 96 60° 3 - - 30.11 0 1-hr Precip Total: 0.03"
2018-07-21 17:00 67 65 - 93 360° 2 - - 30.09 0 1-hr Precip Total: 0.01"
2018-07-21 16:00 67 66 - 96 20° 3 - - 30.10 0 None

Support USWX by starting your Amazon purchase here.